createdAt,value
2023-03-05T00:01:07.248Z,35.30
2023-03-05T00:03:34.552Z,30.98
2023-03-05T00:06:01.587Z,35.25
2023-03-05T00:08:28.826Z,32.05
2023-03-05T00:10:57.109Z,36.88
2023-03-05T00:13:25.688Z,31.67
2023-03-05T00:15:52.826Z,34.47
2023-03-05T00:18:20.581Z,35.45
2023-03-05T00:20:47.518Z,34.10
2023-03-05T00:23:14.635Z,32.17
2023-03-05T00:25:41.623Z,32.00
2023-03-05T00:28:09.358Z,30.20
2023-03-05T00:30:37.673Z,34.08
2023-03-05T00:33:04.660Z,34.58
2023-03-05T00:35:31.635Z,32.65
2023-03-05T00:37:58.575Z,27.55
2023-03-05T00:40:25.639Z,31.35
2023-03-05T00:42:55.554Z,32.80
2023-03-05T00:45:22.514Z,33.17
2023-03-05T00:47:50.811Z,32.03
2023-03-05T00:50:17.896Z,32.42
2023-03-05T00:52:44.839Z,30.50
2023-03-05T00:55:11.753Z,33.05
2023-03-05T00:57:38.772Z,30.75
2023-03-05T01:00:07.099Z,32.97
2023-03-05T01:02:34.883Z,33.80
2023-03-05T01:05:03.743Z,31.80
2023-03-05T01:07:31.012Z,32.50
2023-03-05T01:09:58.008Z,36.00
2023-03-05T01:12:24.907Z,38.42
2023-03-05T01:14:51.838Z,30.90
2023-03-05T01:17:18.755Z,35.13
2023-03-05T01:19:45.892Z,32.95
2023-03-05T01:22:14.271Z,31.00
2023-03-05T01:24:41.203Z,33.53
2023-03-05T01:27:08.129Z,34.17
2023-03-05T01:29:36.549Z,31.40
2023-03-05T01:32:03.638Z,35.20
2023-03-05T01:34:30.563Z,40.83
2023-03-05T01:36:57.506Z,40.85
2023-03-05T01:39:26.336Z,41.55
2023-03-05T01:41:53.302Z,42.72
2023-03-05T01:44:23.550Z,35.58
2023-03-05T01:46:50.613Z,43.85
2023-03-05T01:49:22.215Z,35.08
2023-03-05T01:51:56.458Z,32.67
2023-03-05T01:54:27.876Z,39.15
2023-03-05T01:56:57.441Z,36.30
2023-03-05T01:59:26.861Z,36.60
2023-03-05T02:01:56.790Z,32.03
2023-03-05T02:04:31.144Z,36.90
2023-03-05T02:06:59.076Z,34.05
2023-03-05T02:09:29.571Z,34.22
2023-03-05T02:11:57.555Z,37.50
2023-03-05T02:14:25.932Z,31.58
2023-03-05T02:16:53.217Z,41.60
2023-03-05T02:19:20.296Z,36.85
2023-03-05T02:21:50.597Z,36.08
2023-03-05T02:24:31.781Z,36.42
2023-03-05T02:26:59.203Z,33.10
2023-03-05T02:29:29.416Z,36.55
2023-03-05T02:31:56.414Z,40.38
2023-03-05T02:34:23.511Z,36.80
2023-03-05T02:36:52.023Z,37.25
2023-03-05T02:39:19.954Z,46.53
2023-03-05T02:41:47.021Z,33.33
2023-03-05T02:44:14.125Z,35.08
2023-03-05T02:46:41.158Z,36.25
2023-03-05T02:49:08.327Z,38.20
2023-03-05T02:51:35.303Z,41.67
2023-03-05T02:54:04.002Z,38.50
2023-03-05T02:56:31.164Z,40.53
2023-03-05T02:59:00.377Z,40.75
2023-03-05T03:01:28.517Z,46.80
2023-03-05T03:03:56.368Z,39.83
2023-03-05T03:06:23.567Z,42.35
2023-03-05T03:08:50.496Z,44.45
2023-03-05T03:11:18.841Z,43.63
2023-03-05T03:13:45.808Z,42.53
2023-03-05T03:16:15.050Z,51.85
2023-03-05T03:18:42.093Z,45.63
2023-03-05T03:21:09.027Z,43.83
2023-03-05T03:23:35.972Z,41.70
2023-03-05T03:26:02.940Z,45.42
2023-03-05T03:28:31.206Z,39.15
2023-03-05T03:30:58.132Z,47.90
2023-03-05T03:33:25.103Z,44.50
2023-03-05T03:35:52.086Z,42.30
2023-03-05T03:38:19.133Z,48.47
2023-03-05T03:40:46.072Z,40.15
2023-03-05T03:43:13.060Z,43.78
2023-03-05T03:45:45.043Z,40.58
2023-03-05T03:48:12.122Z,43.83
2023-03-05T03:50:39.624Z,42.83
2023-03-05T03:53:06.867Z,39.55
2023-03-05T03:55:34.068Z,42.20
2023-03-05T03:58:01.141Z,41.60
2023-03-05T04:00:30.322Z,40.45
2023-03-05T04:02:58.872Z,42.78
2023-03-05T04:05:25.809Z,52.28
2023-03-05T04:07:52.880Z,42.97
2023-03-05T04:10:20.098Z,40.42
2023-03-05T04:12:47.075Z,42.88
2023-03-05T04:15:14.084Z,37.40
2023-03-05T04:17:41.001Z,37.10
2023-03-05T04:20:10.956Z,42.72
2023-03-05T04:22:38.257Z,35.55
2023-03-05T04:25:06.625Z,44.42
2023-03-05T04:27:34.305Z,42.75
2023-03-05T04:30:01.273Z,42.58
2023-03-05T04:32:29.852Z,39.05
2023-03-05T04:34:57.119Z,42.97
2023-03-05T04:37:26.741Z,43.58
2023-03-05T04:39:53.928Z,39.55
2023-03-05T04:42:21.399Z,41.50
2023-03-05T04:44:49.622Z,44.80
2023-03-05T04:47:17.569Z,45.92
2023-03-05T04:49:44.975Z,46.22
2023-03-05T04:52:12.864Z,41.88
2023-03-05T04:54:41.403Z,44.25
2023-03-05T04:57:08.745Z,42.80
2023-03-05T04:59:36.829Z,42.90
2023-03-05T05:02:03.832Z,45.53
2023-03-05T05:04:31.043Z,46.03
2023-03-05T05:06:58.643Z,50.63
2023-03-05T05:09:26.078Z,41.63
2023-03-05T05:11:54.591Z,55.92
2023-03-05T05:14:22.119Z,48.80
2023-03-05T05:16:49.027Z,48.28
2023-03-05T05:19:15.950Z,53.63
2023-03-05T05:21:42.909Z,49.83
2023-03-05T05:24:09.849Z,47.78
2023-03-05T05:26:36.747Z,41.30
2023-03-05T05:29:05.536Z,45.33
2023-03-05T05:31:32.511Z,43.47
2023-03-05T05:33:59.499Z,44.67
2023-03-05T05:36:26.438Z,45.10
2023-03-05T05:38:53.386Z,53.97
2023-03-05T05:41:20.489Z,48.40
2023-03-05T05:43:47.563Z,51.15
2023-03-05T05:46:18.485Z,52.85
2023-03-05T05:48:46.471Z,63.15
2023-03-05T05:51:16.063Z,51.88
2023-03-05T05:53:43.731Z,60.28
2023-03-05T05:56:12.144Z,54.38
2023-03-05T05:58:40.158Z,49.83
2023-03-05T06:01:13.205Z,58.97
2023-03-05T06:03:41.558Z,46.80
2023-03-05T06:06:12.611Z,54.67
2023-03-05T06:08:39.868Z,47.60
2023-03-05T06:11:07.008Z,54.42
2023-03-05T06:13:34.461Z,60.25
2023-03-05T06:16:03.493Z,51.67
2023-03-05T06:18:30.910Z,53.08
2023-03-05T06:21:01.826Z,59.05
2023-03-05T06:23:29.187Z,51.50
2023-03-05T06:25:59.586Z,54.00
2023-03-05T06:28:26.751Z,56.83
2023-03-05T06:31:00.960Z,47.28
2023-03-05T06:33:28.764Z,51.03
2023-03-05T06:35:55.838Z,48.55
2023-03-05T06:38:24.535Z,53.75
2023-03-05T06:40:51.906Z,53.47
2023-03-05T06:43:18.876Z,48.38
2023-03-05T06:45:45.875Z,52.20
2023-03-05T06:48:12.993Z,53.15
2023-03-05T06:50:39.976Z,41.95
2023-03-05T06:53:06.949Z,38.97
2023-03-05T06:55:39.828Z,39.85
2023-03-05T06:58:08.149Z,42.55
2023-03-05T07:00:35.157Z,44.20
2023-03-05T07:03:02.217Z,39.28
2023-03-05T07:05:29.592Z,38.55
2023-03-05T07:07:56.887Z,39.63
2023-03-05T07:10:23.847Z,44.75
2023-03-05T07:12:52.238Z,48.00
2023-03-05T07:15:19.216Z,51.38
2023-03-05T07:17:46.184Z,46.58
2023-03-05T07:20:13.444Z,42.03
2023-03-05T07:22:40.534Z,38.95
2023-03-05T07:25:08.220Z,47.25
2023-03-05T07:27:36.471Z,45.22
2023-03-05T07:30:06.028Z,45.40
2023-03-05T07:32:35.479Z,47.03
2023-03-05T07:35:05.349Z,48.03
2023-03-05T07:37:32.367Z,42.60
2023-03-05T07:39:59.551Z,53.53
2023-03-05T07:42:26.763Z,41.22
2023-03-05T07:45:10.396Z,43.08
2023-03-05T07:47:37.494Z,44.28
2023-03-05T07:50:05.362Z,42.63
2023-03-05T07:52:32.269Z,42.03
2023-03-05T07:54:59.251Z,41.58
2023-03-05T07:57:26.148Z,44.97
2023-03-05T07:59:53.085Z,45.30
2023-03-05T08:02:21.704Z,50.22
2023-03-05T08:04:48.719Z,40.13
2023-03-05T08:07:18.685Z,46.17
2023-03-05T08:09:45.757Z,43.28
2023-03-05T08:12:12.638Z,41.88
2023-03-05T08:14:39.535Z,36.95
2023-03-05T08:17:06.887Z,47.35
2023-03-05T08:19:38.357Z,46.05
2023-03-05T08:22:05.394Z,36.85
2023-03-05T08:24:32.324Z,40.13
2023-03-05T08:26:59.720Z,44.22
2023-03-05T08:29:26.897Z,43.50
2023-03-05T08:31:54.397Z,44.63
2023-03-05T08:34:22.071Z,37.70
2023-03-05T08:36:50.824Z,41.45
2023-03-05T08:39:18.593Z,37.10
2023-03-05T08:41:45.602Z,39.53
2023-03-05T08:44:12.658Z,39.60
2023-03-05T08:46:40.264Z,41.30
2023-03-05T08:49:07.888Z,43.67
2023-03-05T08:51:36.044Z,40.75
2023-03-05T08:54:07.229Z,41.78
2023-03-05T08:56:34.637Z,44.70
2023-03-05T08:59:01.868Z,38.95
2023-03-05T09:01:30.611Z,41.83
2023-03-05T09:03:58.231Z,38.80
2023-03-05T09:06:25.521Z,38.30
2023-03-05T09:08:52.840Z,40.60
2023-03-05T09:11:22.069Z,40.67
2023-03-05T09:13:49.321Z,34.25
2023-03-05T09:16:18.370Z,36.05
2023-03-05T09:18:45.759Z,38.50
2023-03-05T09:21:14.703Z,39.63
2023-03-05T09:23:42.388Z,37.72
2023-03-05T09:26:12.248Z,33.15
2023-03-05T09:28:41.169Z,33.50
2023-03-05T09:31:09.290Z,36.97
2023-03-05T09:33:36.983Z,31.58
2023-03-05T09:36:05.951Z,30.25
2023-03-05T09:38:33.139Z,38.08
2023-03-05T09:41:07.716Z,34.88
2023-03-05T09:43:47.654Z,40.42
2023-03-05T09:46:28.243Z,39.13
2023-03-05T09:49:02.306Z,41.85
2023-03-05T09:51:35.123Z,32.17
2023-03-05T09:54:06.257Z,39.35
2023-03-05T09:56:37.090Z,31.83
2023-03-05T09:59:18.734Z,37.58
2023-03-05T10:01:46.442Z,37.55
2023-03-05T10:04:16.427Z,33.58
2023-03-05T10:06:50.871Z,35.47
2023-03-05T10:09:30.579Z,37.53
2023-03-05T10:12:02.993Z,38.85
2023-03-05T10:14:34.076Z,34.50
2023-03-05T10:17:21.963Z,33.72
2023-03-05T10:20:18.306Z,36.50
2023-03-05T10:23:01.819Z,34.55
2023-03-05T10:25:42.960Z,34.75
2023-03-05T10:28:20.231Z,37.20
2023-03-05T10:31:03.296Z,32.42
2023-03-05T10:33:41.452Z,33.35
2023-03-05T10:36:33.430Z,33.45
2023-03-05T10:39:33.899Z,28.85
2023-03-05T10:42:11.324Z,30.48
2023-03-05T10:44:44.518Z,37.65
2023-03-05T10:47:21.017Z,36.13
2023-03-05T10:49:51.447Z,30.88
2023-03-05T10:52:20.226Z,36.42
2023-03-05T10:54:47.301Z,32.92
2023-03-05T10:57:18.569Z,30.35
2023-03-05T10:59:49.328Z,34.50
2023-03-05T11:02:19.042Z,31.40
2023-03-05T11:04:47.276Z,34.30
2023-03-05T11:07:38.321Z,33.72
2023-03-05T11:10:17.323Z,32.58
2023-03-05T11:12:45.110Z,30.85
2023-03-05T11:15:28.504Z,34.65
2023-03-05T11:18:19.296Z,35.33
2023-03-05T11:20:46.731Z,33.47
2023-03-05T11:23:15.306Z,37.25
2023-03-05T11:25:57.353Z,33.33
2023-03-05T11:28:33.447Z,33.50
2023-03-05T11:31:20.871Z,34.55
2023-03-05T11:33:58.483Z,37.05
2023-03-05T11:36:28.212Z,32.08
2023-03-05T11:38:57.938Z,32.05
2023-03-05T11:41:29.936Z,35.20
2023-03-05T11:43:58.936Z,32.50
2023-03-05T11:46:26.959Z,33.25
2023-03-05T11:48:56.566Z,33.30
2023-03-05T11:51:29.159Z,36.17
2023-03-05T11:54:03.651Z,33.83
2023-03-05T11:56:33.278Z,33.70
2023-03-05T11:59:05.179Z,37.90
2023-03-05T12:01:38.699Z,31.98
2023-03-05T12:04:08.742Z,34.97
2023-03-05T12:06:40.981Z,34.05
2023-03-05T12:09:12.226Z,36.38
2023-03-05T12:11:39.891Z,33.08
2023-03-05T12:14:15.126Z,27.63
2023-03-05T12:19:37.770Z,32.88
2023-03-05T12:22:15.118Z,32.72
2023-03-05T12:24:42.194Z,35.20
2023-03-05T12:27:15.859Z,29.55
2023-03-05T12:29:46.582Z,30.25
2023-03-05T12:32:58.607Z,29.38
2023-03-05T12:35:30.556Z,34.42
2023-03-05T12:38:26.833Z,29.63
2023-03-05T12:41:34.334Z,28.30
2023-03-05T12:44:22.298Z,26.23
2023-03-05T12:47:17.813Z,30.33
2023-03-05T12:49:46.528Z,28.80
2023-03-05T12:52:22.927Z,31.67
2023-03-05T12:55:02.061Z,24.85
2023-03-05T12:57:31.453Z,27.80
2023-03-05T13:00:05.175Z,27.33
2023-03-05T13:02:36.290Z,26.20
2023-03-05T13:05:07.678Z,27.60
2023-03-05T13:07:36.666Z,29.63
2023-03-05T13:10:03.966Z,25.92
2023-03-05T13:12:31.162Z,26.85
2023-03-05T13:15:01.235Z,24.20
2023-03-05T13:17:30.982Z,25.70
2023-03-05T13:19:59.694Z,27.13
2023-03-05T13:22:27.168Z,28.35
2023-03-05T13:25:20.635Z,27.05
2023-03-05T13:27:47.639Z,24.48
2023-03-05T13:30:23.158Z,26.30
2023-03-05T13:32:52.249Z,26.02
2023-03-05T13:35:20.903Z,24.73
2023-03-05T13:37:48.638Z,29.10
2023-03-05T13:40:21.909Z,26.58
2023-03-05T13:42:48.958Z,28.38
2023-03-05T13:45:25.878Z,25.25
2023-03-05T13:47:56.028Z,27.08
2023-03-05T13:50:25.828Z,25.80
2023-03-05T13:52:53.612Z,25.92
2023-03-05T13:55:22.017Z,23.88
2023-03-05T13:57:53.539Z,19.02
2023-03-05T14:00:32.523Z,20.30
2023-03-05T14:03:07.903Z,24.33
2023-03-05T14:05:35.015Z,21.75
2023-03-05T14:08:02.559Z,19.92
2023-03-05T14:10:34.721Z,20.02
2023-03-05T14:13:04.925Z,20.25
2023-03-05T14:15:33.881Z,21.92
2023-03-05T14:18:19.319Z,22.85
2023-03-05T14:21:05.921Z,19.50
2023-03-05T14:23:39.046Z,21.15
2023-03-05T14:26:26.319Z,24.58
2023-03-05T14:28:57.205Z,24.30
2023-03-05T14:31:24.961Z,24.30
2023-03-05T14:33:52.663Z,22.55
2023-03-05T14:36:24.712Z,23.55
2023-03-05T14:38:52.976Z,21.02
2023-03-05T14:41:31.318Z,21.38
2023-03-05T14:43:58.620Z,22.35
2023-03-05T14:46:25.659Z,21.85
2023-03-05T14:48:58.099Z,22.88
2023-03-05T14:51:25.767Z,24.05
2023-03-05T14:53:52.758Z,21.77
2023-03-05T14:56:28.615Z,25.55
2023-03-05T14:58:57.632Z,21.50
2023-03-05T15:01:25.535Z,32.00
2023-03-05T15:03:52.533Z,190.90
2023-03-05T15:06:27.643Z,395.95
2023-03-05T15:08:54.634Z,506.88
2023-03-05T15:11:22.686Z,159.27
2023-03-05T15:13:51.100Z,402.15
2023-03-05T15:16:19.843Z,139.10
2023-03-05T15:18:48.519Z,27.27
2023-03-05T15:21:17.591Z,23.10
2023-03-05T15:23:45.292Z,18.83
2023-03-05T15:26:14.929Z,21.25
2023-03-05T15:28:43.762Z,22.27
2023-03-05T15:31:12.113Z,27.40
2023-03-05T15:33:39.460Z,25.08
2023-03-05T15:36:07.618Z,28.10
2023-03-05T15:38:34.648Z,21.88
2023-03-05T15:41:01.855Z,24.98
2023-03-05T15:43:30.596Z,28.38
2023-03-05T15:45:57.532Z,22.65
2023-03-05T15:48:25.848Z,24.13
2023-03-05T15:50:52.786Z,26.27
2023-03-05T15:53:21.534Z,24.17
2023-03-05T15:55:48.549Z,25.27
2023-03-05T15:58:17.137Z,39.33
2023-03-05T16:00:44.396Z,64.35
2023-03-05T16:03:11.649Z,526.10
2023-03-05T16:05:40.355Z,404.83
2023-03-05T16:08:08.120Z,516.53
2023-03-05T16:10:36.668Z,624.17
2023-03-05T16:13:06.320Z,589.05
2023-03-05T16:15:35.148Z,528.38
2023-03-05T16:18:05.977Z,544.83
2023-03-05T16:20:36.395Z,140.27
2023-03-05T16:23:05.500Z,44.72
2023-03-05T16:25:33.037Z,29.65
2023-03-05T16:28:00.419Z,31.30
2023-03-05T16:30:27.468Z,32.80
2023-03-05T16:32:54.409Z,23.88
2023-03-05T16:35:21.535Z,26.05
2023-03-05T16:37:48.456Z,24.52
2023-03-05T16:40:16.960Z,24.95
2023-03-05T16:42:45.578Z,26.90
2023-03-05T16:45:12.965Z,35.80
2023-03-05T16:47:40.540Z,26.65
2023-03-05T16:50:09.226Z,25.58
2023-03-05T16:52:37.067Z,28.85
2023-03-05T16:55:04.566Z,24.70
2023-03-05T16:57:32.872Z,30.63
2023-03-05T17:00:04.178Z,34.28
2023-03-05T17:02:31.465Z,26.67
2023-03-05T17:04:58.474Z,29.10
2023-03-05T17:07:26.600Z,24.15
2023-03-05T17:09:54.139Z,29.33
2023-03-05T17:12:21.489Z,26.08
2023-03-05T17:14:49.788Z,25.83
2023-03-05T17:17:16.812Z,24.55
2023-03-05T17:19:44.580Z,23.17
2023-03-05T17:22:17.531Z,31.83
2023-03-05T17:24:46.745Z,28.20
2023-03-05T17:27:14.322Z,27.65
2023-03-05T17:29:41.251Z,28.60
2023-03-05T17:32:12.415Z,108.35
2023-03-05T17:34:43.388Z,196.25
2023-03-05T17:37:10.727Z,202.20
2023-03-05T17:39:38.372Z,101.70
2023-03-05T17:42:05.396Z,75.07
2023-03-05T17:44:32.532Z,103.35
2023-03-05T17:46:59.421Z,54.85
2023-03-05T17:49:27.797Z,48.13
2023-03-05T17:51:54.808Z,47.03
2023-03-05T17:54:22.012Z,46.30
2023-03-05T17:56:49.045Z,35.33
2023-03-05T17:59:16.458Z,57.72
2023-03-05T18:01:43.422Z,52.17
2023-03-05T18:04:15.242Z,58.88
2023-03-05T18:06:44.418Z,79.40
2023-03-05T18:09:14.267Z,60.28
2023-03-05T18:11:41.366Z,43.75
2023-03-05T18:14:08.449Z,37.70
2023-03-05T18:16:38.005Z,32.55
2023-03-05T18:19:09.832Z,34.50
2023-03-05T18:21:36.968Z,29.20
2023-03-05T18:24:05.776Z,28.30
2023-03-05T18:26:32.978Z,30.45
2023-03-05T18:29:00.403Z,28.23
2023-03-05T18:31:27.470Z,30.05
2023-03-05T18:33:54.472Z,28.63
2023-03-05T18:36:21.485Z,27.52
2023-03-05T18:38:48.410Z,26.85
2023-03-05T18:41:22.427Z,30.23
2023-03-05T18:43:50.650Z,28.90
2023-03-05T18:46:18.235Z,24.35
2023-03-05T18:48:45.393Z,27.55
2023-03-05T18:51:15.595Z,23.15
2023-03-05T18:53:43.084Z,24.27
2023-03-05T18:56:10.265Z,19.85
2023-03-05T18:58:39.582Z,24.02
2023-03-05T19:01:07.068Z,24.30
2023-03-05T19:03:34.061Z,21.80
2023-03-05T19:06:01.128Z,33.95
2023-03-05T19:08:28.235Z,23.15
2023-03-05T19:10:55.201Z,23.15
2023-03-05T19:13:45.564Z,25.85
2023-03-05T19:16:14.634Z,20.48
2023-03-05T19:19:17.757Z,24.40
2023-03-05T19:21:47.223Z,127.43
2023-03-05T19:24:14.715Z,82.32
2023-03-05T19:26:43.676Z,29.88
2023-03-05T19:29:12.571Z,24.33
2023-03-05T19:31:39.586Z,20.75
2023-03-05T19:34:07.148Z,18.90
2023-03-05T19:36:35.670Z,19.63
2023-03-05T19:39:03.950Z,16.52
2023-03-05T19:41:30.947Z,89.20
2023-03-05T19:43:58.093Z,121.05
2023-03-05T19:46:26.758Z,250.40
2023-03-05T19:48:53.978Z,59.45
2023-03-05T19:51:23.003Z,61.38
2023-03-05T19:53:50.626Z,33.15
2023-03-05T19:56:18.304Z,110.03
2023-03-05T19:58:48.770Z,101.60
2023-03-05T20:01:17.618Z,47.55
2023-03-05T20:03:46.788Z,22.20
2023-03-05T20:06:14.007Z,21.23
2023-03-05T20:08:41.471Z,21.95
2023-03-05T20:11:10.729Z,18.60
2023-03-05T20:13:41.389Z,20.58
2023-03-05T20:16:15.775Z,25.70
2023-03-05T20:18:43.418Z,23.17
2023-03-05T20:21:12.065Z,22.60
2023-03-05T20:23:40.102Z,20.80
2023-03-05T20:26:07.038Z,17.33
2023-03-05T20:28:34.661Z,21.13
2023-03-05T20:31:02.407Z,21.52
2023-03-05T20:33:29.953Z,18.80
2023-03-05T20:35:56.936Z,20.67
2023-03-05T20:38:26.349Z,13.63
2023-03-05T20:40:54.709Z,22.80
2023-03-05T20:43:22.930Z,23.10
2023-03-05T20:45:50.141Z,18.52
2023-03-05T20:48:17.144Z,22.42
2023-03-05T20:50:44.194Z,18.95
2023-03-05T20:53:11.144Z,19.75
2023-03-05T20:55:39.452Z,15.43
2023-03-05T20:58:06.601Z,19.55
2023-03-05T21:00:33.860Z,39.67
2023-03-05T21:03:00.777Z,38.45
2023-03-05T21:05:30.224Z,27.50
2023-03-05T21:07:57.804Z,27.42
2023-03-05T21:10:25.558Z,25.65
2023-03-05T21:12:54.854Z,250.07
2023-03-05T21:15:23.795Z,190.65
2023-03-05T21:17:50.944Z,271.42
2023-03-05T21:20:21.274Z,396.48
2023-03-05T21:22:48.422Z,393.33
2023-03-05T21:25:27.468Z,315.38
2023-03-05T21:27:58.252Z,301.58
2023-03-05T21:30:31.396Z,204.82
2023-03-05T21:32:59.242Z,68.50
2023-03-05T21:35:26.461Z,152.48
2023-03-05T21:37:53.426Z,206.98
2023-03-05T21:40:21.721Z,190.77
2023-03-05T21:42:49.449Z,128.35
2023-03-05T21:45:20.780Z,68.45
2023-03-05T21:47:48.164Z,28.65
2023-03-05T21:50:16.342Z,21.50
2023-03-05T21:52:43.823Z,19.88
2023-03-05T21:55:13.776Z,17.10
2023-03-05T21:57:40.865Z,17.27
2023-03-05T22:00:11.189Z,16.58
2023-03-05T22:02:42.530Z,14.55
2023-03-05T22:05:12.913Z,16.58
2023-03-05T22:07:40.013Z,17.10
2023-03-05T22:10:08.633Z,20.35
2023-03-05T22:13:05.983Z,20.77
2023-03-05T22:15:33.519Z,15.18
2023-03-05T22:18:01.931Z,16.15
2023-03-05T22:20:28.896Z,18.88
2023-03-05T22:22:55.926Z,18.60
2023-03-05T22:25:22.851Z,17.90
2023-03-05T22:27:49.770Z,19.20
2023-03-05T22:30:17.212Z,21.23
2023-03-05T22:32:44.124Z,16.83
2023-03-05T22:35:14.815Z,18.52
2023-03-05T22:37:42.042Z,17.63
2023-03-05T22:40:13.489Z,20.58
2023-03-05T22:42:41.407Z,19.13
2023-03-05T22:45:09.433Z,18.27
2023-03-05T22:47:36.567Z,17.73
2023-03-05T22:50:04.252Z,18.77
2023-03-05T22:52:32.541Z,21.95
2023-03-05T22:55:03.073Z,22.92
2023-03-05T22:57:31.793Z,19.27
2023-03-05T22:59:59.032Z,21.83
2023-03-05T23:02:26.041Z,19.13
2023-03-05T23:04:54.934Z,24.25
2023-03-05T23:07:23.735Z,23.58
2023-03-05T23:09:53.704Z,21.20
2023-03-05T23:12:21.866Z,27.50
2023-03-05T23:14:48.915Z,22.67
2023-03-05T23:17:15.859Z,19.58
2023-03-05T23:19:42.902Z,22.02
2023-03-05T23:22:11.989Z,19.88
2023-03-05T23:24:39.019Z,24.33
2023-03-05T23:27:07.843Z,24.30
2023-03-05T23:30:14.366Z,21.38
2023-03-05T23:35:09.690Z,23.33
2023-03-05T23:37:36.808Z,19.52
2023-03-05T23:40:04.589Z,21.58
2023-03-05T23:42:33.094Z,19.83
2023-03-05T23:45:00.285Z,23.55
2023-03-05T23:47:27.227Z,21.23
2023-03-05T23:49:54.223Z,21.52
2023-03-05T23:52:21.135Z,19.75
2023-03-05T23:54:48.053Z,16.85
2023-03-05T23:57:14.967Z,20.48
2023-03-05T23:59:43.491Z,20.30
